sensor_id;sensor_type;location;lat;lon;timestamp;pressure;altitude;pressure_sealevel;temperature;humidity
9189;BME280;34313;50.780;6.084;2023-03-26T00:02:03;98734.63;;;8.21;90.53
9189;BME280;34313;50.780;6.084;2023-03-26T00:04:29;98738.66;;;8.12;91.31
9189;BME280;34313;50.780;6.084;2023-03-26T00:06:57;98745.69;;;8.12;91.90
9189;BME280;34313;50.780;6.084;2023-03-26T00:09:22;98739.50;;;8.13;92.12
9189;BME280;34313;50.780;6.084;2023-03-26T00:11:47;98730.97;;;8.09;92.64
9189;BME280;34313;50.780;6.084;2023-03-26T00:14:13;98733.69;;;8.08;93.06
9189;BME280;34313;50.780;6.084;2023-03-26T00:16:41;98744.16;;;8.08;92.93
9189;BME280;34313;50.780;6.084;2023-03-26T00:19:07;98738.91;;;8.08;93.48
9189;BME280;34313;50.780;6.084;2023-03-26T00:21:33;98731.25;;;8.05;93.56
9189;BME280;34313;50.780;6.084;2023-03-26T00:24:05;98741.28;;;7.98;94.15
9189;BME280;34313;50.780;6.084;2023-03-26T00:26:32;98741.72;;;7.90;94.71
9189;BME280;34313;50.780;6.084;2023-03-26T00:28:58;98740.22;;;7.86;94.90
9189;BME280;34313;50.780;6.084;2023-03-26T00:31:24;98729.53;;;7.75;95.80
9189;BME280;34313;50.780;6.084;2023-03-26T00:33:51;98731.09;;;7.78;95.87
9189;BME280;34313;50.780;6.084;2023-03-26T00:36:20;98724.66;;;7.83;95.59
9189;BME280;34313;50.780;6.084;2023-03-26T00:38:45;98729.16;;;7.81;95.81
9189;BME280;34313;50.780;6.084;2023-03-26T00:41:14;98733.56;;;7.95;94.91
9189;BME280;34313;50.780;6.084;2023-03-26T00:43:43;98719.16;;;8.02;94.49
9189;BME280;34313;50.780;6.084;2023-03-26T00:46:10;98719.63;;;8.09;93.49
9189;BME280;34313;50.780;6.084;2023-03-26T00:48:35;98720.00;;;8.17;92.83
9189;BME280;34313;50.780;6.084;2023-03-26T00:51:03;98708.00;;;8.27;91.61
9189;BME280;34313;50.780;6.084;2023-03-26T00:53:30;98712.03;;;8.33;90.81
9189;BME280;34313;50.780;6.084;2023-03-26T00:55:56;98705.66;;;8.37;90.59
9189;BME280;34313;50.780;6.084;2023-03-26T00:58:24;98700.78;;;8.31;90.41
9189;BME280;34313;50.780;6.084;2023-03-26T01:00:56;98705.00;;;8.33;90.11
9189;BME280;34313;50.780;6.084;2023-03-26T01:03:22;98697.41;;;8.29;90.24
9189;BME280;34313;50.780;6.084;2023-03-26T01:08:35;98689.81;;;8.24;90.48
9189;BME280;34313;50.780;6.084;2023-03-26T01:11:06;98684.91;;;8.32;90.24
9189;BME280;34313;50.780;6.084;2023-03-26T01:13:40;98682.03;;;8.37;90.14
9189;BME280;34313;50.780;6.084;2023-03-26T01:16:13;98674.16;;;8.37;89.87
9189;BME280;34313;50.780;6.084;2023-03-26T01:18:45;98679.97;;;8.42;89.83
9189;BME280;34313;50.780;6.084;2023-03-26T01:21:11;98668.81;;;8.39;89.78
9189;BME280;34313;50.780;6.084;2023-03-26T01:23:44;98682.53;;;8.44;89.68
9189;BME280;34313;50.780;6.084;2023-03-26T01:26:19;98675.56;;;8.43;89.92
9189;BME280;34313;50.780;6.084;2023-03-26T01:28:51;98672.09;;;8.42;90.17
9189;BME280;34313;50.780;6.084;2023-03-26T01:31:30;98660.75;;;8.42;90.14
9189;BME280;34313;50.780;6.084;2023-03-26T01:34:10;98660.75;;;8.42;90.59
9189;BME280;34313;50.780;6.084;2023-03-26T01:37:01;98663.72;;;8.50;89.95
9189;BME280;34313;50.780;6.084;2023-03-26T01:39:39;98663.19;;;8.45;90.38
9189;BME280;34313;50.780;6.084;2023-03-26T01:42:17;98653.22;;;8.50;90.34
9189;BME280;34313;50.780;6.084;2023-03-26T01:44:53;98642.63;;;8.51;90.85
9189;BME280;34313;50.780;6.084;2023-03-26T01:47:22;98648.53;;;8.55;90.37
9189;BME280;34313;50.780;6.084;2023-03-26T01:49:47;98642.53;;;8.53;90.59
9189;BME280;34313;50.780;6.084;2023-03-26T01:52:18;98641.28;;;8.59;90.64
9189;BME280;34313;50.780;6.084;2023-03-26T01:54:44;98645.91;;;8.55;91.25
9189;BME280;34313;50.780;6.084;2023-03-26T02:00:24;98627.63;;;8.54;91.87
9189;BME280;34313;50.780;6.084;2023-03-26T02:03:18;98624.63;;;8.60;91.63
9189;BME280;34313;50.780;6.084;2023-03-26T02:06:15;98617.56;;;8.60;91.65
9189;BME280;34313;50.780;6.084;2023-03-26T02:08:58;98611.13;;;8.51;92.44
9189;BME280;34313;50.780;6.084;2023-03-26T02:11:25;98598.31;;;8.47;93.04
9189;BME280;34313;50.780;6.084;2023-03-26T02:13:51;98601.47;;;8.52;93.09
9189;BME280;34313;50.780;6.084;2023-03-26T02:16:19;98600.81;;;8.48;93.24
9189;BME280;34313;50.780;6.084;2023-03-26T02:18:45;98605.97;;;8.50;93.09
9189;BME280;34313;50.780;6.084;2023-03-26T02:21:18;98589.38;;;8.49;93.97
9189;BME280;34313;50.780;6.084;2023-03-26T02:23:45;98593.06;;;8.47;93.92
9189;BME280;34313;50.780;6.084;2023-03-26T02:26:12;98588.34;;;8.52;94.00
9189;BME280;34313;50.780;6.084;2023-03-26T02:28:38;98576.53;;;8.45;94.33
9189;BME280;34313;50.780;6.084;2023-03-26T02:31:04;98578.41;;;8.43;94.21
9189;BME280;34313;50.780;6.084;2023-03-26T02:33:30;98568.38;;;8.35;94.92
9189;BME280;34313;50.780;6.084;2023-03-26T02:35:57;98569.69;;;8.42;94.96
9189;BME280;34313;50.780;6.084;2023-03-26T02:38:29;98563.78;;;8.39;95.25
9189;BME280;34313;50.780;6.084;2023-03-26T02:40:58;98557.13;;;8.33;95.43
9189;BME280;34313;50.780;6.084;2023-03-26T02:43:23;98540.38;;;8.21;95.83
9189;BME280;34313;50.780;6.084;2023-03-26T02:45:49;98543.56;;;8.26;96.13
9189;BME280;34313;50.780;6.084;2023-03-26T02:48:14;98550.78;;;8.23;96.67
9189;BME280;34313;50.780;6.084;2023-03-26T02:50:40;98536.63;;;8.25;96.94
9189;BME280;34313;50.780;6.084;2023-03-26T02:53:06;98534.72;;;8.27;97.25
9189;BME280;34313;50.780;6.084;2023-03-26T02:55:31;98522.38;;;8.29;97.53
9189;BME280;34313;50.780;6.084;2023-03-26T02:57:57;98514.03;;;8.23;97.32
9189;BME280;34313;50.780;6.084;2023-03-26T03:00:22;98506.91;;;8.25;97.68
9189;BME280;34313;50.780;6.084;2023-03-26T03:02:48;98500.81;;;8.24;97.99
9189;BME280;34313;50.780;6.084;2023-03-26T03:05:15;98500.81;;;8.24;98.25
9189;BME280;34313;50.780;6.084;2023-03-26T03:07:42;98493.88;;;8.23;97.96
9189;BME280;34313;50.780;6.084;2023-03-26T03:10:08;98495.03;;;8.19;98.37
9189;BME280;34313;50.780;6.084;2023-03-26T03:12:34;98489.13;;;8.16;98.63
9189;BME280;34313;50.780;6.084;2023-03-26T03:15:01;98489.69;;;8.21;98.77
9189;BME280;34313;50.780;6.084;2023-03-26T03:17:26;98486.53;;;8.28;98.27
9189;BME280;34313;50.780;6.084;2023-03-26T03:19:51;98476.88;;;8.29;98.01
9189;BME280;34313;50.780;6.084;2023-03-26T03:22:17;98483.28;;;8.25;98.48
9189;BME280;34313;50.780;6.084;2023-03-26T03:24:44;98478.22;;;8.22;98.29
9189;BME280;34313;50.780;6.084;2023-03-26T03:27:09;98461.84;;;8.18;99.04
9189;BME280;34313;50.780;6.084;2023-03-26T03:29:34;98457.41;;;8.19;99.32
9189;BME280;34313;50.780;6.084;2023-03-26T03:32:01;98454.91;;;8.17;99.25
9189;BME280;34313;50.780;6.084;2023-03-26T03:34:26;98446.63;;;8.23;98.65
9189;BME280;34313;50.780;6.084;2023-03-26T03:36:51;98442.09;;;8.25;98.52
9189;BME280;34313;50.780;6.084;2023-03-26T03:39:16;98437.72;;;8.26;98.43
9189;BME280;34313;50.780;6.084;2023-03-26T03:41:42;98435.28;;;8.23;98.27
9189;BME280;34313;50.780;6.084;2023-03-26T03:44:07;98420.66;;;8.19;98.55
9189;BME280;34313;50.780;6.084;2023-03-26T03:46:32;98425.44;;;8.26;98.63
9189;BME280;34313;50.780;6.084;2023-03-26T03:48:58;98424.28;;;8.30;98.09
9189;BME280;34313;50.780;6.084;2023-03-26T03:51:23;98429.53;;;8.30;97.89
9189;BME280;34313;50.780;6.084;2023-03-26T03:53:49;98419.75;;;8.32;97.14
9189;BME280;34313;50.780;6.084;2023-03-26T03:56:15;98419.50;;;8.50;95.57
9189;BME280;34313;50.780;6.084;2023-03-26T03:58:43;98421.94;;;8.53;95.00
9189;BME280;34313;50.780;6.084;2023-03-26T04:01:10;98411.44;;;8.53;94.78
9189;BME280;34313;50.780;6.084;2023-03-26T04:03:38;98409.97;;;8.49;95.18
9189;BME280;34313;50.780;6.084;2023-03-26T04:06:06;98411.09;;;8.45;96.02
9189;BME280;34313;50.780;6.084;2023-03-26T04:08:32;98406.91;;;8.42;96.57
9189;BME280;34313;50.780;6.084;2023-03-26T04:10:58;98411.34;;;8.55;97.42
9189;BME280;34313;50.780;6.084;2023-03-26T04:13:24;98415.13;;;8.63;98.75
9189;BME280;34313;50.780;6.084;2023-03-26T04:15:49;98407.44;;;8.60;98.53
9189;BME280;34313;50.780;6.084;2023-03-26T04:18:15;98387.59;;;8.56;100.00
9189;BME280;34313;50.780;6.084;2023-03-26T04:20:42;98385.16;;;8.53;100.00
9189;BME280;34313;50.780;6.084;2023-03-26T04:23:12;98380.22;;;8.48;100.00
9189;BME280;34313;50.780;6.084;2023-03-26T04:25:38;98378.56;;;8.47;100.00
9189;BME280;34313;50.780;6.084;2023-03-26T04:28:05;98374.53;;;8.42;100.00
9189;BME280;34313;50.780;6.084;2023-03-26T04:30:33;98375.91;;;8.35;100.00
9189;BME280;34313;50.780;6.084;2023-03-26T04:33:03;98362.44;;;8.26;100.00
9189;BME280;34313;50.780;6.084;2023-03-26T04:35:33;98349.22;;;8.28;100.00
9189;BME280;34313;50.780;6.084;2023-03-26T04:37:59;98348.56;;;8.24;100.00
9189;BME280;34313;50.780;6.084;2023-03-26T04:40:25;98341.53;;;8.25;100.00
9189;BME280;34313;50.780;6.084;2023-03-26T04:42:50;98330.31;;;8.23;100.00
9189;BME280;34313;50.780;6.084;2023-03-26T04:45:22;98335.41;;;8.11;100.00
9189;BME280;34313;50.780;6.084;2023-03-26T04:47:47;98329.31;;;8.11;100.00
9189;BME280;34313;50.780;6.084;2023-03-26T04:50:15;98320.28;;;8.02;100.00
9189;BME280;34313;50.780;6.084;2023-03-26T04:52:41;98322.19;;;8.00;100.00
9189;BME280;34313;50.780;6.084;2023-03-26T04:55:18;98324.06;;;7.98;100.00
9189;BME280;34313;50.780;6.084;2023-03-26T04:57:48;98304.75;;;7.99;100.00
9189;BME280;34313;50.780;6.084;2023-03-26T05:00:15;98305.38;;;8.03;100.00
9189;BME280;34313;50.780;6.084;2023-03-26T05:02:42;98302.13;;;7.99;100.00
9189;BME280;34313;50.780;6.084;2023-03-26T05:05:08;98296.75;;;7.88;100.00
9189;BME280;34313;50.780;6.084;2023-03-26T05:07:35;98294.97;;;7.88;100.00
9189;BME280;34313;50.780;6.084;2023-03-26T05:10:01;98296.66;;;7.89;100.00
9189;BME280;34313;50.780;6.084;2023-03-26T05:12:30;98278.09;;;7.92;100.00
9189;BME280;34313;50.780;6.084;2023-03-26T05:14:55;98278.69;;;7.83;100.00
9189;BME280;34313;50.780;6.084;2023-03-26T05:17:22;98281.84;;;7.88;100.00
9189;BME280;34313;50.780;6.084;2023-03-26T05:19:49;98276.81;;;7.85;100.00
9189;BME280;34313;50.780;6.084;2023-03-26T05:22:16;98268.28;;;7.82;100.00
9189;BME280;34313;50.780;6.084;2023-03-26T05:24:41;98269.38;;;7.92;100.00
9189;BME280;34313;50.780;6.084;2023-03-26T05:27:07;98270.63;;;7.86;100.00
9189;BME280;34313;50.780;6.084;2023-03-26T05:29:32;98257.06;;;7.80;100.00
9189;BME280;34313;50.780;6.084;2023-03-26T05:31:57;98257.06;;;7.80;100.00
9189;BME280;34313;50.780;6.084;2023-03-26T05:34:22;98250.91;;;7.81;100.00
9189;BME280;34313;50.780;6.084;2023-03-26T05:36:50;98242.19;;;7.80;100.00
9189;BME280;34313;50.780;6.084;2023-03-26T05:39:16;98245.75;;;7.79;100.00
9189;BME280;34313;50.780;6.084;2023-03-26T05:41:41;98234.84;;;7.85;100.00
9189;BME280;34313;50.780;6.084;2023-03-26T05:44:06;98234.00;;;7.85;100.00
9189;BME280;34313;50.780;6.084;2023-03-26T05:46:31;98226.47;;;7.80;100.00
9189;BME280;34313;50.780;6.084;2023-03-26T05:48:57;98224.03;;;7.77;100.00
9189;BME280;34313;50.780;6.084;2023-03-26T05:51:22;98213.22;;;7.82;100.00
9189;BME280;34313;50.780;6.084;2023-03-26T05:53:48;98215.09;;;7.80;100.00
9189;BME280;34313;50.780;6.084;2023-03-26T05:56:13;98214.81;;;7.84;100.00
9189;BME280;34313;50.780;6.084;2023-03-26T05:58:38;98213.22;;;7.82;100.00
9189;BME280;34313;50.780;6.084;2023-03-26T06:01:08;98207.88;;;7.83;100.00
9189;BME280;34313;50.780;6.084;2023-03-26T06:03:38;98203.06;;;7.90;100.00
9189;BME280;34313;50.780;6.084;2023-03-26T06:06:12;98209.13;;;7.90;100.00
9189;BME280;34313;50.780;6.084;2023-03-26T06:08:44;98198.53;;;7.92;100.00
9189;BME280;34313;50.780;6.084;2023-03-26T06:11:14;98205.03;;;7.86;100.00
9189;BME280;34313;50.780;6.084;2023-03-26T06:13:40;98198.78;;;7.89;100.00
9189;BME280;34313;50.780;6.084;2023-03-26T06:16:07;98191.72;;;7.89;100.00
9189;BME280;34313;50.780;6.084;2023-03-26T06:18:32;98184.88;;;7.87;100.00
9189;BME280;34313;50.780;6.084;2023-03-26T06:20:58;98186.06;;;7.83;100.00
9189;BME280;34313;50.780;6.084;2023-03-26T06:23:23;98186.03;;;7.95;100.00
9189;BME280;34313;50.780;6.084;2023-03-26T06:25:48;98189.09;;;8.02;100.00
9189;BME280;34313;50.780;6.084;2023-03-26T06:28:14;98190.97;;;8.13;100.00
9189;BME280;34313;50.780;6.084;2023-03-26T06:30:40;98181.72;;;8.20;100.00
9189;BME280;34313;50.780;6.084;2023-03-26T06:33:05;98174.06;;;8.04;100.00
9189;BME280;34313;50.780;6.084;2023-03-26T06:35:31;98180.47;;;8.13;100.00
9189;BME280;34313;50.780;6.084;2023-03-26T06:37:57;98167.91;;;8.05;100.00
9189;BME280;34313;50.780;6.084;2023-03-26T06:40:23;98167.16;;;8.03;100.00
9189;BME280;34313;50.780;6.084;2023-03-26T06:42:48;98161.38;;;8.11;100.00
9189;BME280;34313;50.780;6.084;2023-03-26T06:45:13;98154.56;;;8.08;100.00
9189;BME280;34313;50.780;6.084;2023-03-26T06:47:39;98148.47;;;8.08;100.00
9189;BME280;34313;50.780;6.084;2023-03-26T06:50:05;98155.50;;;8.07;100.00
9189;BME280;34313;50.780;6.084;2023-03-26T06:52:30;98155.28;;;7.98;100.00
9189;BME280;34313;50.780;6.084;2023-03-26T06:54:56;98148.16;;;7.87;100.00
9189;BME280;34313;50.780;6.084;2023-03-26T06:57:21;98143.53;;;7.90;100.00
9189;BME280;34313;50.780;6.084;2023-03-26T06:59:46;98148.94;;;7.89;100.00
9189;BME280;34313;50.780;6.084;2023-03-26T07:02:12;98141.25;;;7.86;100.00
9189;BME280;34313;50.780;6.084;2023-03-26T07:04:37;98128.75;;;7.76;100.00
9189;BME280;34313;50.780;6.084;2023-03-26T07:07:03;98127.81;;;7.78;100.00
9189;BME280;34313;50.780;6.084;2023-03-26T07:09:28;98127.09;;;7.75;100.00
9189;BME280;34313;50.780;6.084;2023-03-26T07:11:57;98123.31;;;7.80;100.00
9189;BME280;34313;50.780;6.084;2023-03-26T07:14:23;98114.81;;;7.76;100.00
9189;BME280;34313;50.780;6.084;2023-03-26T07:16:49;98111.88;;;7.68;100.00
9189;BME280;34313;50.780;6.084;2023-03-26T07:19:15;98118.06;;;7.80;100.00
9189;BME280;34313;50.780;6.084;2023-03-26T07:21:41;98115.22;;;7.95;100.00
9189;BME280;34313;50.780;6.084;2023-03-26T07:24:09;98117.94;;;7.55;100.00
9189;BME280;34313;50.780;6.084;2023-03-26T07:26:55;98110.72;;;7.46;100.00
9189;BME280;34313;50.780;6.084;2023-03-26T07:30:11;98104.66;;;7.46;100.00
9189;BME280;34313;50.780;6.084;2023-03-26T07:35:09;98092.28;;;7.35;100.00
9189;BME280;34313;50.780;6.084;2023-03-26T07:38:04;98090.06;;;7.29;100.00
9189;BME280;34313;50.780;6.084;2023-03-26T07:40:44;98087.44;;;7.29;100.00
9189;BME280;34313;50.780;6.084;2023-03-26T07:45:42;98075.34;;;7.13;100.00
9189;BME280;34313;50.780;6.084;2023-03-26T07:48:20;98075.59;;;7.10;100.00
9189;BME280;34313;50.780;6.084;2023-03-26T07:50:49;98070.34;;;7.10;100.00
9189;BME280;34313;50.780;6.084;2023-03-26T07:53:15;98064.03;;;7.13;100.00
9189;BME280;34313;50.780;6.084;2023-03-26T07:58:58;98059.97;;;7.09;100.00
9189;BME280;34313;50.780;6.084;2023-03-26T08:01:32;98054.19;;;7.16;100.00
9189;BME280;34313;50.780;6.084;2023-03-26T08:06:57;98037.84;;;7.13;100.00
9189;BME280;34313;50.780;6.084;2023-03-26T08:18:04;98031.97;;;7.22;100.00
9189;BME280;34313;50.780;6.084;2023-03-26T08:20:46;98023.47;;;7.18;100.00
9189;BME280;34313;50.780;6.084;2023-03-26T08:25:56;98009.56;;;7.44;100.00
9189;BME280;34313;50.780;6.084;2023-03-26T08:31:08;98002.59;;;7.55;100.00
9189;BME280;34313;50.780;6.084;2023-03-26T08:33:35;98007.63;;;7.58;100.00
9189;BME280;34313;50.780;6.084;2023-03-26T08:36:01;98008.28;;;7.49;100.00
9189;BME280;34313;50.780;6.084;2023-03-26T08:38:26;97998.44;;;7.40;100.00
9189;BME280;34313;50.780;6.084;2023-03-26T08:52:15;97981.53;;;7.94;100.00
9189;BME280;34313;50.780;6.084;2023-03-26T09:01:30;97976.56;;;8.26;100.00
9189;BME280;34313;50.780;6.084;2023-03-26T09:15:50;97946.63;;;8.53;100.00
9189;BME280;34313;50.780;6.084;2023-03-26T09:18:39;97954.06;;;8.35;100.00
9189;BME280;34313;50.780;6.084;2023-03-26T09:32:45;97937.78;;;9.12;100.00
9189;BME280;34313;50.780;6.084;2023-03-26T09:47:02;97924.94;;;9.64;100.00
9189;BME280;34313;50.780;6.084;2023-03-26T09:49:42;97923.31;;;9.40;100.00
9189;BME280;34313;50.780;6.084;2023-03-26T10:00:48;97919.75;;;9.96;100.00
9189;BME280;34313;50.780;6.084;2023-03-26T10:03:27;97914.41;;;9.75;100.00
9189;BME280;34313;50.780;6.084;2023-03-26T10:06:09;97903.22;;;9.51;100.00
9189;BME280;34313;50.780;6.084;2023-03-26T10:08:51;97918.97;;;9.62;100.00
9189;BME280;34313;50.780;6.084;2023-03-26T10:14:33;97950.31;;;9.42;100.00
9189;BME280;34313;50.780;6.084;2023-03-26T10:25:51;97928.59;;;10.81;81.77
9189;BME280;34313;50.780;6.084;2023-03-26T10:48:39;97913.94;;;12.59;71.08
9189;BME280;34313;50.780;6.084;2023-03-26T10:53:41;97914.91;;;12.19;74.00
9189;BME280;34313;50.780;6.084;2023-03-26T10:58:44;97916.03;;;12.26;74.53
9189;BME280;34313;50.780;6.084;2023-03-26T11:01:23;97920.91;;;12.50;73.98
9189;BME280;34313;50.780;6.084;2023-03-26T11:03:54;97930.47;;;12.61;72.73
9189;BME280;34313;50.780;6.084;2023-03-26T11:12:18;97929.91;;;12.08;76.25
9189;BME280;34313;50.780;6.084;2023-03-26T11:17:30;97926.03;;;12.13;77.75
9189;BME280;34313;50.780;6.084;2023-03-26T11:20:10;97931.03;;;12.16;77.93
9189;BME280;34313;50.780;6.084;2023-03-26T11:25:54;97932.00;;;12.44;77.36
9189;BME280;34313;50.780;6.084;2023-03-26T11:33:30;97938.81;;;11.98;80.21
9189;BME280;34313;50.780;6.084;2023-03-26T11:36:01;97939.44;;;11.90;81.11
9189;BME280;34313;50.780;6.084;2023-03-26T11:38:36;97941.72;;;11.95;82.58
9189;BME280;34313;50.780;6.084;2023-03-26T11:41:03;97939.09;;;12.04;83.79
9189;BME280;34313;50.780;6.084;2023-03-26T11:43:35;97945.72;;;11.99;85.70
9189;BME280;34313;50.780;6.084;2023-03-26T11:46:08;97944.97;;;11.77;86.78
9189;BME280;34313;50.780;6.084;2023-03-26T11:48:41;97939.94;;;11.64;88.48
9189;BME280;34313;50.780;6.084;2023-03-26T11:51:19;97948.69;;;11.24;89.68
9189;BME280;34313;50.780;6.084;2023-03-26T11:53:47;97946.13;;;10.92;92.01
9189;BME280;34313;50.780;6.084;2023-03-26T11:56:21;97952.75;;;10.86;92.98
9189;BME280;34313;50.780;6.084;2023-03-26T11:58:51;97949.09;;;10.77;95.26
9189;BME280;34313;50.780;6.084;2023-03-26T12:01:26;97950.34;;;10.73;96.08
9189;BME280;34313;50.780;6.084;2023-03-26T12:04:12;97955.97;;;10.69;96.49
9189;BME280;34313;50.780;6.084;2023-03-26T12:06:49;97958.03;;;10.65;97.13
9189;BME280;34313;50.780;6.084;2023-03-26T12:09:16;97952.88;;;10.64;98.12
9189;BME280;34313;50.780;6.084;2023-03-26T12:11:42;97952.88;;;10.64;97.75
9189;BME280;34313;50.780;6.084;2023-03-26T12:14:16;97960.22;;;10.60;98.30
9189;BME280;34313;50.780;6.084;2023-03-26T12:16:58;97970.16;;;10.56;99.51
9189;BME280;34313;50.780;6.084;2023-03-26T12:19:24;97973.25;;;10.62;100.00
9189;BME280;34313;50.780;6.084;2023-03-26T12:21:51;97961.56;;;10.75;100.00
9189;BME280;34313;50.780;6.084;2023-03-26T12:24:26;97971.63;;;11.03;99.05
9189;BME280;34313;50.780;6.084;2023-03-26T12:29:49;97969.31;;;11.50;95.35
9189;BME280;34313;50.780;6.084;2023-03-26T12:32:15;97974.25;;;11.33;94.30
9189;BME280;34313;50.780;6.084;2023-03-26T12:34:40;97981.34;;;11.33;94.31
9189;BME280;34313;50.780;6.084;2023-03-26T12:37:14;97983.34;;;11.20;95.20
9189;BME280;34313;50.780;6.084;2023-03-26T12:40:49;97975.97;;;11.13;96.89
9189;BME280;34313;50.780;6.084;2023-03-26T12:43:00;97984.63;;;11.04;93.70
9189;BME280;34313;50.780;6.084;2023-03-26T12:45:36;97980.72;;;10.77;93.77
9189;BME280;34313;50.780;6.084;2023-03-26T12:48:02;97985.63;;;10.82;94.74
9189;BME280;34313;50.780;6.084;2023-03-26T12:50:35;97984.00;;;10.70;95.58
9189;BME280;34313;50.780;6.084;2023-03-26T12:53:45;97988.13;;;10.63;95.34
9189;BME280;34313;50.780;6.084;2023-03-26T12:56:19;97991.94;;;10.58;96.75
9189;BME280;34313;50.780;6.084;2023-03-26T13:04:47;97997.00;;;10.83;94.78
9189;BME280;34313;50.780;6.084;2023-03-26T13:12:52;97993.44;;;10.72;94.15
9189;BME280;34313;50.780;6.084;2023-03-26T13:15:45;98003.38;;;10.80;95.01
9189;BME280;34313;50.780;6.084;2023-03-26T13:18:41;98009.69;;;10.89;94.83
9189;BME280;34313;50.780;6.084;2023-03-26T13:21:30;98004.91;;;11.04;93.44
9189;BME280;34313;50.780;6.084;2023-03-26T13:29:34;98007.50;;;11.46;91.01
9189;BME280;34313;50.780;6.084;2023-03-26T13:37:41;98001.81;;;11.20;90.89
9189;BME280;34313;50.780;6.084;2023-03-26T13:45:32;98006.25;;;10.77;93.50
9189;BME280;34313;50.780;6.084;2023-03-26T13:48:11;98000.19;;;10.65;93.69
9189;BME280;34313;50.780;6.084;2023-03-26T13:50:41;98006.34;;;10.54;95.49
9189;BME280;34313;50.780;6.084;2023-03-26T13:53:13;98009.63;;;10.47;96.46
9189;BME280;34313;50.780;6.084;2023-03-26T13:55:48;98011.44;;;10.35;96.06
9189;BME280;34313;50.780;6.084;2023-03-26T13:58:21;98019.09;;;10.27;98.00
9189;BME280;34313;50.780;6.084;2023-03-26T14:01:05;98013.63;;;10.07;98.27
9189;BME280;34313;50.780;6.084;2023-03-26T14:03:37;98025.16;;;9.95;99.48
9189;BME280;34313;50.780;6.084;2023-03-26T14:06:09;98024.78;;;9.88;100.00
9189;BME280;34313;50.780;6.084;2023-03-26T14:08:46;98025.75;;;9.76;100.00
9189;BME280;34313;50.780;6.084;2023-03-26T14:11:20;98023.97;;;9.65;100.00
9189;BME280;34313;50.780;6.084;2023-03-26T14:14:27;98028.28;;;9.43;100.00
9189;BME280;34313;50.780;6.084;2023-03-26T14:17:12;98032.06;;;9.39;100.00
9189;BME280;34313;50.780;6.084;2023-03-26T14:19:53;98042.34;;;9.20;100.00
9189;BME280;34313;50.780;6.084;2023-03-26T14:22:59;98046.59;;;9.09;100.00
9189;BME280;34313;50.780;6.084;2023-03-26T14:31:38;98054.75;;;9.29;100.00
9189;BME280;34313;50.780;6.084;2023-03-26T14:34:43;98056.94;;;9.35;100.00
9189;BME280;34313;50.780;6.084;2023-03-26T14:43:38;98064.88;;;9.58;100.00
9189;BME280;34313;50.780;6.084;2023-03-26T14:49:08;98071.31;;;9.65;100.00
9189;BME280;34313;50.780;6.084;2023-03-26T14:54:41;98086.38;;;9.63;100.00
9189;BME280;34313;50.780;6.084;2023-03-26T14:57:27;98091.66;;;9.63;100.00
9189;BME280;34313;50.780;6.084;2023-03-26T15:06:01;98101.88;;;9.32;100.00
9189;BME280;34313;50.780;6.084;2023-03-26T15:09:01;98113.38;;;9.07;100.00
9189;BME280;34313;50.780;6.084;2023-03-26T15:14:43;98123.50;;;9.00;100.00
9189;BME280;34313;50.780;6.084;2023-03-26T15:37:02;98159.88;;;9.42;100.00
9189;BME280;34313;50.780;6.084;2023-03-26T15:45:34;98166.72;;;9.56;100.00
9189;BME280;34313;50.780;6.084;2023-03-26T15:57:11;98196.66;;;8.82;100.00
9189;BME280;34313;50.780;6.084;2023-03-26T15:59:39;98202.94;;;8.80;100.00
9189;BME280;34313;50.780;6.084;2023-03-26T16:02:40;98202.00;;;8.81;100.00
9189;BME280;34313;50.780;6.084;2023-03-26T16:05:34;98207.78;;;8.86;100.00
9189;BME280;34313;50.780;6.084;2023-03-26T16:11:01;98224.38;;;8.86;100.00
9189;BME280;34313;50.780;6.084;2023-03-26T16:18:34;98238.44;;;8.98;100.00
9189;BME280;34313;50.780;6.084;2023-03-26T16:24:11;98244.56;;;8.86;100.00
9189;BME280;34313;50.780;6.084;2023-03-26T16:29:19;98257.25;;;8.92;100.00
9189;BME280;34313;50.780;6.084;2023-03-26T16:32:09;98257.03;;;8.95;100.00
9189;BME280;34313;50.780;6.084;2023-03-26T16:34:44;98275.84;;;9.02;100.00
9189;BME280;34313;50.780;6.084;2023-03-26T16:43:11;98282.28;;;8.85;100.00
9189;BME280;34313;50.780;6.084;2023-03-26T16:46:04;98287.84;;;8.93;100.00
9189;BME280;34313;50.780;6.084;2023-03-26T16:48:56;98303.63;;;8.80;100.00
9189;BME280;34313;50.780;6.084;2023-03-26T16:54:24;98307.31;;;8.78;100.00
9189;BME280;34313;50.780;6.084;2023-03-26T16:57:26;98313.00;;;8.72;100.00
9189;BME280;34313;50.780;6.084;2023-03-26T17:00:20;98320.56;;;8.63;100.00
9189;BME280;34313;50.780;6.084;2023-03-26T17:03:14;98332.97;;;8.61;100.00
9189;BME280;34313;50.780;6.084;2023-03-26T17:05:59;98335.16;;;8.42;100.00
9189;BME280;34313;50.780;6.084;2023-03-26T17:08:55;98343.63;;;8.32;100.00
9189;BME280;34313;50.780;6.084;2023-03-26T17:14:42;98353.72;;;8.26;100.00
9189;BME280;34313;50.780;6.084;2023-03-26T17:20:08;98370.28;;;8.13;100.00
9189;BME280;34313;50.780;6.084;2023-03-26T17:30:50;98395.91;;;8.10;100.00
9189;BME280;34313;50.780;6.084;2023-03-26T17:41:03;98421.63;;;7.63;100.00
9189;BME280;34313;50.780;6.084;2023-03-26T17:43:43;98424.63;;;7.71;100.00
9189;BME280;34313;50.780;6.084;2023-03-26T17:54:35;98461.84;;;7.21;100.00
9189;BME280;34313;50.780;6.084;2023-03-26T17:57:13;98472.88;;;7.26;100.00
9189;BME280;34313;50.780;6.084;2023-03-26T17:59:42;98472.31;;;7.06;100.00
9189;BME280;34313;50.780;6.084;2023-03-26T18:02:17;98478.22;;;7.10;100.00
9189;BME280;34313;50.780;6.084;2023-03-26T18:04:45;98492.81;;;6.99;100.00
9189;BME280;34313;50.780;6.084;2023-03-26T18:10:22;98501.34;;;7.03;100.00
9189;BME280;34313;50.780;6.084;2023-03-26T18:16:15;98513.13;;;7.10;100.00
9189;BME280;34313;50.780;6.084;2023-03-26T18:18:50;98519.28;;;7.09;100.00
9189;BME280;34313;50.780;6.084;2023-03-26T18:21:32;98527.81;;;7.13;100.00
9189;BME280;34313;50.780;6.084;2023-03-26T18:23:59;98526.50;;;7.06;100.00
9189;BME280;34313;50.780;6.084;2023-03-26T18:26:32;98529.66;;;6.96;100.00
9189;BME280;34313;50.780;6.084;2023-03-26T18:31:58;98549.81;;;6.80;100.00
9189;BME280;34313;50.780;6.084;2023-03-26T18:34:29;98552.72;;;6.75;100.00
9189;BME280;34313;50.780;6.084;2023-03-26T18:40:06;98562.13;;;6.63;100.00
9189;BME280;34313;50.780;6.084;2023-03-26T18:42:45;98581.66;;;6.58;100.00
9189;BME280;34313;50.780;6.084;2023-03-26T18:45:22;98576.25;;;6.61;100.00